createdAt,value
2018-11-10T00:00:58.800Z,6.42
2018-11-10T00:03:29.225Z,6.38
2018-11-10T00:05:58.925Z,6.41
2018-11-10T00:08:29.658Z,6.46
2018-11-10T00:10:59.227Z,6.44
2018-11-10T00:13:31.166Z,6.44
2018-11-10T00:16:01.218Z,6.40
2018-11-10T00:18:33.628Z,6.35
2018-11-10T00:21:04.013Z,6.37
2018-11-10T00:23:33.786Z,6.32
2018-11-10T00:26:03.583Z,6.41
2018-11-10T00:28:38.625Z,6.50
2018-11-10T00:31:08.337Z,6.45
2018-11-10T00:33:38.118Z,6.47
2018-11-10T00:36:07.978Z,6.55
2018-11-10T00:38:37.794Z,6.51
2018-11-10T00:41:07.669Z,6.56
2018-11-10T00:43:37.391Z,6.60
2018-11-10T00:46:07.242Z,6.70
2018-11-10T00:48:36.991Z,6.66
2018-11-10T00:51:06.927Z,6.66
2018-11-10T00:53:36.823Z,6.70
2018-11-10T00:56:06.711Z,6.73
2018-11-10T00:58:39.030Z,6.71
2018-11-10T01:01:08.780Z,6.63
2018-11-10T01:03:38.520Z,6.69
2018-11-10T01:06:08.316Z,6.60
2018-11-10T01:08:38.450Z,6.63
2018-11-10T01:11:08.884Z,6.65
2018-11-10T01:16:30.230Z,6.53
2018-11-10T01:19:00.671Z,6.50
2018-11-10T01:21:30.550Z,6.42
2018-11-10T01:24:00.857Z,6.38
2018-11-10T01:26:32.134Z,6.30
2018-11-10T01:29:02.438Z,6.21
2018-11-10T01:31:32.229Z,6.10
2018-11-10T01:34:02.567Z,6.02
2018-11-10T01:36:32.501Z,5.96
2018-11-10T01:39:04.037Z,5.96
2018-11-10T01:41:33.912Z,5.92
2018-11-10T01:44:03.889Z,5.90
2018-11-10T01:46:35.031Z,5.83
2018-11-10T01:49:05.055Z,5.81
2018-11-10T01:51:35.017Z,5.78
2018-11-10T01:54:04.951Z,5.88
2018-11-10T01:56:34.993Z,5.80
2018-11-10T01:59:05.633Z,5.79
2018-11-10T02:01:35.738Z,5.79
2018-11-10T02:04:06.513Z,5.71
2018-11-10T02:06:36.425Z,5.69
2018-11-10T02:09:09.942Z,5.66
2018-11-10T02:11:40.974Z,5.68
2018-11-10T02:14:11.314Z,5.75
2018-11-10T02:16:41.549Z,5.61
2018-11-10T02:19:12.069Z,5.66
2018-11-10T02:21:42.609Z,5.75
2018-11-10T02:24:13.382Z,5.79
2018-11-10T02:26:43.922Z,5.85
2018-11-10T02:29:14.619Z,5.91
2018-11-10T02:31:51.059Z,5.96
2018-11-10T02:34:21.823Z,5.91
2018-11-10T02:36:51.716Z,5.92
2018-11-10T02:39:22.910Z,5.89
2018-11-10T02:41:53.202Z,5.89
2018-11-10T02:44:23.540Z,5.86
2018-11-10T02:46:53.391Z,5.81
2018-11-10T02:49:28.088Z,5.90
2018-11-10T02:52:01.810Z,5.88
2018-11-10T02:54:37.742Z,5.86
2018-11-10T02:57:10.799Z,5.87
2018-11-10T02:59:40.938Z,5.82
2018-11-10T03:02:12.730Z,5.90
2018-11-10T03:04:42.608Z,5.84
2018-11-10T03:07:12.465Z,5.83
2018-11-10T03:09:42.267Z,5.83
2018-11-10T03:12:12.101Z,5.86
2018-11-10T03:14:41.816Z,5.86
2018-11-10T03:17:12.918Z,5.87
2018-11-10T03:19:42.622Z,5.90
2018-11-10T03:22:12.465Z,5.86
2018-11-10T03:24:42.213Z,5.78
2018-11-10T03:27:12.126Z,5.79
2018-11-10T03:29:41.992Z,5.70
2018-11-10T03:32:12.641Z,5.65
2018-11-10T03:34:42.435Z,5.62
2018-11-10T03:37:12.547Z,5.57
2018-11-10T03:39:42.251Z,5.53
2018-11-10T03:42:12.096Z,5.48
2018-11-10T03:44:41.899Z,5.45
2018-11-10T03:50:02.531Z,5.34
2018-11-10T03:52:32.402Z,5.29
2018-11-10T03:55:02.272Z,5.25
2018-11-10T03:57:32.595Z,5.21
2018-11-10T04:00:02.550Z,5.23
2018-11-10T04:02:32.427Z,5.27
2018-11-10T04:05:02.383Z,5.36
2018-11-10T04:07:32.659Z,5.24
2018-11-10T04:10:02.625Z,5.19
2018-11-10T04:12:33.207Z,5.16
2018-11-10T04:15:03.085Z,5.20
2018-11-10T04:17:32.854Z,5.16
2018-11-10T04:20:02.755Z,5.07
2018-11-10T04:22:35.065Z,5.01
2018-11-10T04:25:06.230Z,4.98
2018-11-10T04:27:35.959Z,4.97
2018-11-10T04:30:06.776Z,4.97
2018-11-10T04:32:37.334Z,4.99
2018-11-10T04:35:07.733Z,5.05
2018-11-10T04:37:37.894Z,5.22
2018-11-10T04:40:08.684Z,5.23
2018-11-10T04:42:38.494Z,5.35
2018-11-10T04:45:09.546Z,5.35
2018-11-10T04:47:39.546Z,5.40
2018-11-10T04:50:10.985Z,5.35
2018-11-10T04:52:41.128Z,5.44
2018-11-10T04:55:12.527Z,5.43
2018-11-10T04:57:43.026Z,5.53
2018-11-10T05:00:14.980Z,5.51
2018-11-10T05:02:45.641Z,5.51
2018-11-10T05:05:38.607Z,5.51
2018-11-10T05:08:08.285Z,5.60
2018-11-10T05:10:38.070Z,5.61
2018-11-10T05:13:07.866Z,5.70
2018-11-10T05:15:37.711Z,5.67
2018-11-10T05:18:07.533Z,5.65
2018-11-10T05:20:37.411Z,5.72
2018-11-10T05:23:07.172Z,5.77
2018-11-10T05:25:36.936Z,5.79
2018-11-10T05:28:06.872Z,5.78
2018-11-10T05:30:36.702Z,5.79
2018-11-10T05:33:06.349Z,5.78
2018-11-10T05:35:35.732Z,5.75
2018-11-10T05:38:05.578Z,5.62
2018-11-10T05:40:35.373Z,5.59
2018-11-10T05:43:05.268Z,5.60
2018-11-10T05:45:35.129Z,5.61
2018-11-10T05:48:04.892Z,5.64
2018-11-10T05:50:34.701Z,5.63
2018-11-10T05:53:04.518Z,5.70
2018-11-10T05:55:34.283Z,5.73
2018-11-10T05:58:04.111Z,5.58
2018-11-10T06:00:33.969Z,5.64
2018-11-10T06:03:03.946Z,5.65
2018-11-10T06:05:34.795Z,5.63
2018-11-10T06:08:04.630Z,5.77
2018-11-10T06:10:34.508Z,5.71
2018-11-10T06:13:04.181Z,5.73
2018-11-10T06:15:34.093Z,5.78
2018-11-10T06:18:03.920Z,5.83
2018-11-10T06:20:33.726Z,5.86
2018-11-10T06:23:03.626Z,5.76
2018-11-10T06:25:33.797Z,5.75
2018-11-10T06:28:03.583Z,5.80
2018-11-10T06:30:33.596Z,5.83
2018-11-10T06:33:03.548Z,5.93
2018-11-10T06:35:33.400Z,5.98
2018-11-10T06:38:03.332Z,6.06
2018-11-10T06:40:33.156Z,6.21
2018-11-10T06:43:02.968Z,6.48
2018-11-10T06:45:32.733Z,7.04
2018-11-10T06:48:02.544Z,7.55
2018-11-10T06:50:32.291Z,7.58
2018-11-10T06:53:02.088Z,7.67
2018-11-10T06:55:31.978Z,8.00
2018-11-10T06:58:01.861Z,8.31
2018-11-10T07:00:31.720Z,8.50
2018-11-10T07:03:01.546Z,8.65
2018-11-10T07:05:31.347Z,8.98
2018-11-10T07:08:01.254Z,9.33
2018-11-10T07:10:31.362Z,9.63
2018-11-10T07:13:01.232Z,9.77
2018-11-10T07:15:31.060Z,9.99
2018-11-10T07:18:00.927Z,10.28
2018-11-10T07:20:30.779Z,10.60
2018-11-10T07:23:00.762Z,10.70
2018-11-10T07:25:30.561Z,10.89
2018-11-10T07:28:00.811Z,11.19
2018-11-10T07:30:30.627Z,11.36
2018-11-10T07:33:00.481Z,11.60
2018-11-10T07:35:30.278Z,11.67
2018-11-10T07:40:51.467Z,12.15
2018-11-10T07:43:21.218Z,12.27
2018-11-10T07:45:51.088Z,12.33
2018-11-10T07:48:20.843Z,12.58
2018-11-10T07:50:50.703Z,12.88
2018-11-10T07:53:20.878Z,13.34
2018-11-10T07:55:51.094Z,13.29
2018-11-10T07:58:25.751Z,13.15
2018-11-10T08:01:00.484Z,13.15
2018-11-10T08:03:36.100Z,13.27
2018-11-10T08:06:07.219Z,13.38
2018-11-10T08:08:37.086Z,13.61
2018-11-10T08:11:07.432Z,13.64
2018-11-10T08:13:37.279Z,13.52
2018-11-10T08:16:07.575Z,13.60
2018-11-10T08:18:37.684Z,13.58
2018-11-10T08:21:07.927Z,13.54
2018-11-10T08:23:37.779Z,13.52
2018-11-10T08:26:09.294Z,13.78
2018-11-10T08:28:40.961Z,13.59
2018-11-10T08:31:10.943Z,13.66
2018-11-10T08:33:40.983Z,13.75
2018-11-10T08:36:10.773Z,13.98
2018-11-10T08:38:40.807Z,14.10
2018-11-10T08:41:11.147Z,14.20
2018-11-10T08:43:40.998Z,14.39
2018-11-10T08:46:10.836Z,14.30
2018-11-10T08:48:40.789Z,14.53
2018-11-10T08:51:10.609Z,14.91
2018-11-10T08:53:40.593Z,15.34
2018-11-10T08:56:10.594Z,15.20
2018-11-10T08:58:40.912Z,14.78
2018-11-10T09:01:10.883Z,14.74
2018-11-10T09:03:40.660Z,14.66
2018-11-10T09:06:10.483Z,14.86
2018-11-10T09:08:40.216Z,15.46
2018-11-10T09:11:10.639Z,15.82
2018-11-10T09:13:40.555Z,15.27
2018-11-10T09:16:13.914Z,15.16
2018-11-10T09:18:43.615Z,16.01
2018-11-10T09:21:13.503Z,16.21
2018-11-10T09:23:43.472Z,16.00
2018-11-10T09:26:13.527Z,16.13
2018-11-10T09:28:43.388Z,16.03
2018-11-10T09:31:13.269Z,15.91
2018-11-10T09:33:43.006Z,16.11
2018-11-10T09:36:13.083Z,16.23
2018-11-10T09:38:43.451Z,16.03
2018-11-10T09:41:13.203Z,16.03
2018-11-10T09:43:43.059Z,15.95
2018-11-10T09:46:12.930Z,15.96
2018-11-10T09:48:42.851Z,16.56
2018-11-10T09:51:12.686Z,16.66
2018-11-10T09:53:44.186Z,16.91
2018-11-10T09:56:15.041Z,17.53
2018-11-10T09:58:44.868Z,17.79
2018-11-10T10:01:15.403Z,17.79
2018-11-10T10:03:45.107Z,17.67
2018-11-10T10:06:14.891Z,17.04
2018-11-10T10:08:44.918Z,17.00
2018-11-10T10:11:14.746Z,17.52
2018-11-10T10:13:44.601Z,17.78
2018-11-10T10:16:14.530Z,17.77
2018-11-10T10:18:44.649Z,17.50
2018-11-10T10:21:14.486Z,17.87
2018-11-10T10:23:44.239Z,18.45
2018-11-10T10:26:14.181Z,18.72
2018-11-10T10:28:44.073Z,18.37
2018-11-10T10:31:13.934Z,18.39
2018-11-10T10:33:43.751Z,18.45
2018-11-10T10:36:13.714Z,18.43
2018-11-10T10:38:43.478Z,18.77
2018-11-10T10:41:13.360Z,18.19
2018-11-10T10:43:43.198Z,17.98
2018-11-10T10:46:13.335Z,18.14
2018-11-10T10:48:43.168Z,18.21
2018-11-10T10:51:13.035Z,18.07
2018-11-10T10:53:48.658Z,17.91
2018-11-10T10:56:24.364Z,17.78
2018-11-10T10:58:54.582Z,18.30
2018-11-10T11:01:29.322Z,18.65
2018-11-10T11:04:05.217Z,18.74
2018-11-10T11:06:35.165Z,18.86
2018-11-10T11:09:05.275Z,19.03
2018-11-10T11:11:35.156Z,18.93
2018-11-10T11:14:05.080Z,18.78
2018-11-10T11:16:34.981Z,18.83
2018-11-10T11:19:05.315Z,18.72
2018-11-10T11:21:35.224Z,18.53
2018-11-10T11:24:05.145Z,18.83
2018-11-10T11:26:35.082Z,18.91
2018-11-10T11:29:04.907Z,18.69
2018-11-10T11:31:34.757Z,18.43
2018-11-10T11:34:04.796Z,18.52
2018-11-10T11:36:34.722Z,18.67
2018-11-10T11:39:04.785Z,18.72
2018-11-10T11:41:34.859Z,18.50
2018-11-10T11:44:04.601Z,18.47
2018-11-10T11:46:34.363Z,18.41
2018-11-10T11:49:04.538Z,18.03
2018-11-10T11:51:34.430Z,17.87
2018-11-10T11:54:04.260Z,17.19
2018-11-10T11:56:34.151Z,16.71
2018-11-10T11:59:03.940Z,16.45
2018-11-10T12:01:33.814Z,16.58
2018-11-10T12:04:03.611Z,16.84
2018-11-10T12:06:33.589Z,17.07
2018-11-10T12:09:03.357Z,17.14
2018-11-10T12:11:33.178Z,17.34
2018-11-10T12:14:03.052Z,17.81
2018-11-10T12:16:33.029Z,18.05
2018-11-10T12:19:02.919Z,18.28
2018-11-10T12:21:32.939Z,18.32
2018-11-10T12:24:02.920Z,18.35
2018-11-10T12:26:32.697Z,18.51
2018-11-10T12:29:02.662Z,18.59
2018-11-10T12:31:32.795Z,18.53
2018-11-10T12:34:02.733Z,18.43
2018-11-10T12:36:32.471Z,18.39
2018-11-10T12:39:02.450Z,18.33
2018-11-10T12:41:32.397Z,18.08
2018-11-10T12:44:02.241Z,18.11
2018-11-10T12:46:34.208Z,18.15
2018-11-10T12:49:04.153Z,18.10
2018-11-10T12:51:34.053Z,17.95
2018-11-10T12:54:03.819Z,17.99
2018-11-10T12:56:34.380Z,17.91
2018-11-10T12:59:05.928Z,17.81
2018-11-10T13:01:35.677Z,17.53
2018-11-10T13:04:05.647Z,17.48
2018-11-10T13:06:35.651Z,17.46
2018-11-10T13:09:07.600Z,17.42
2018-11-10T13:11:37.675Z,17.26
2018-11-10T13:19:09.598Z,16.54
2018-11-10T13:22:26.431Z,16.70
2018-11-10T13:25:21.879Z,16.66
2018-11-10T13:28:02.251Z,16.58
2018-11-10T13:30:43.635Z,16.63
2018-11-10T13:33:25.875Z,16.50
2018-11-10T13:39:19.577Z,16.23
2018-11-10T13:41:52.929Z,16.15
2018-11-10T13:44:40.555Z,16.02
2018-11-10T13:50:11.351Z,15.76
2018-11-10T13:52:55.448Z,15.70
2018-11-10T13:55:33.919Z,15.58
2018-11-10T13:58:36.384Z,15.63
2018-11-10T14:01:34.636Z,15.51
2018-11-10T14:12:55.591Z,15.45
2018-11-10T14:15:24.457Z,15.07
2018-11-10T14:17:53.819Z,15.09
2018-11-10T14:20:24.802Z,15.11
2018-11-10T14:22:54.019Z,14.92
2018-11-10T14:25:23.255Z,14.91
2018-11-10T14:27:52.399Z,14.87
2018-11-10T14:30:22.366Z,14.79
2018-11-10T14:32:51.516Z,14.70
2018-11-10T14:35:20.446Z,14.50
2018-11-10T14:37:49.347Z,14.52
2018-11-10T14:40:18.841Z,14.46
2018-11-10T14:42:47.861Z,14.36
2018-11-10T14:45:18.431Z,14.31
2018-11-10T14:47:47.935Z,14.15
2018-11-10T14:50:17.887Z,14.07
2018-11-10T14:52:47.124Z,14.00
2018-11-10T14:55:16.352Z,13.98
2018-11-10T14:57:45.268Z,13.87
2018-11-10T15:00:18.222Z,13.75
2018-11-10T15:02:48.256Z,13.66
2018-11-10T15:05:17.818Z,13.53
2018-11-10T15:07:47.645Z,13.58
2018-11-10T15:10:17.882Z,13.48
2018-11-10T15:12:47.167Z,13.35
2018-11-10T15:15:17.884Z,13.30
2018-11-10T15:17:47.893Z,13.20
2018-11-10T15:20:18.226Z,13.09
2018-11-10T15:22:47.269Z,12.94
2018-11-10T15:25:19.188Z,12.87
2018-11-10T15:27:49.354Z,12.78
2018-11-10T15:30:19.597Z,12.73
2018-11-10T15:32:49.267Z,12.62
2018-11-10T15:35:20.233Z,12.66
2018-11-10T15:37:50.335Z,12.55
2018-11-10T15:40:20.073Z,12.46
2018-11-10T15:42:49.196Z,12.38
2018-11-10T15:45:19.298Z,12.33
2018-11-10T15:47:48.271Z,12.27
2018-11-10T15:50:18.692Z,12.23
2018-11-10T15:52:47.604Z,12.18
2018-11-10T15:55:16.507Z,12.16
2018-11-10T15:57:45.509Z,12.13
2018-11-10T16:00:16.162Z,12.09
2018-11-10T16:02:45.188Z,12.03
2018-11-10T16:05:14.729Z,12.03
2018-11-10T16:07:43.844Z,12.08
2018-11-10T16:10:13.314Z,12.07
2018-11-10T16:12:42.485Z,12.06
2018-11-10T16:15:14.420Z,12.09
2018-11-10T16:17:43.620Z,12.03
2018-11-10T16:20:16.077Z,12.04
2018-11-10T16:22:46.955Z,12.08
2018-11-10T16:25:16.035Z,12.04
2018-11-10T16:27:45.447Z,12.06
2018-11-10T16:30:16.524Z,12.12
2018-11-10T16:32:45.815Z,12.09
2018-11-10T16:35:16.704Z,12.08
2018-11-10T16:37:45.659Z,12.12
2018-11-10T16:40:16.438Z,12.06
2018-11-10T16:42:46.324Z,12.00
2018-11-10T16:45:17.863Z,11.98
2018-11-10T16:47:47.844Z,11.90
2018-11-10T16:50:16.807Z,11.97
2018-11-10T16:52:46.597Z,11.81
2018-11-10T16:55:15.812Z,11.79
2018-11-10T16:57:45.089Z,11.73
2018-11-10T17:00:17.924Z,11.63
2018-11-10T17:02:46.905Z,11.58
2018-11-10T17:05:20.076Z,11.44
2018-11-10T17:07:56.764Z,11.40
2018-11-10T17:10:31.397Z,11.39
2018-11-10T17:13:03.942Z,11.30
2018-11-10T17:15:35.961Z,11.15
2018-11-10T17:18:11.063Z,11.14
2018-11-10T17:20:50.788Z,10.99
2018-11-10T17:23:25.221Z,10.98
2018-11-10T17:26:14.129Z,11.00
2018-11-10T17:28:46.219Z,10.98
2018-11-10T17:31:19.388Z,10.87
2018-11-10T17:33:51.484Z,10.79
2018-11-10T17:36:25.829Z,10.80
2018-11-10T17:39:04.534Z,10.78
2018-11-10T17:41:34.554Z,10.73
2018-11-10T17:44:05.874Z,10.66
2018-11-10T17:46:36.536Z,10.71
2018-11-10T17:49:05.484Z,10.70
2018-11-10T17:51:36.074Z,10.68
2018-11-10T17:54:05.184Z,10.64
2018-11-10T17:56:34.131Z,10.63
2018-11-10T17:59:03.126Z,10.62
2018-11-10T18:01:32.421Z,10.67
2018-11-10T18:04:01.795Z,10.62
2018-11-10T18:06:30.515Z,10.69
2018-11-10T18:08:59.510Z,10.63
2018-11-10T18:11:29.529Z,10.65
2018-11-10T18:13:58.554Z,10.61
2018-11-10T18:16:27.631Z,10.55
2018-11-10T18:18:56.674Z,10.53
2018-11-10T18:21:25.738Z,10.57
2018-11-10T18:23:55.532Z,10.50
2018-11-10T18:26:27.241Z,10.48
2018-11-10T18:28:58.083Z,10.45
2018-11-10T18:31:28.062Z,10.53
2018-11-10T18:34:02.341Z,10.58
2018-11-10T18:36:37.146Z,10.50
2018-11-10T18:39:26.525Z,10.54
2018-11-10T18:41:57.003Z,10.58
2018-11-10T18:44:26.449Z,10.65
2018-11-10T18:46:56.859Z,10.68
2018-11-10T18:49:26.101Z,10.67
2018-11-10T18:51:55.350Z,10.71
2018-11-10T18:54:26.499Z,10.74
2018-11-10T18:56:56.319Z,10.79
2018-11-10T18:59:26.116Z,10.77
2018-11-10T19:01:55.466Z,10.81
2018-11-10T19:04:25.495Z,10.81
2018-11-10T19:06:54.720Z,10.83
2018-11-10T19:12:13.808Z,10.85
2018-11-10T19:14:42.800Z,10.82
2018-11-10T19:17:11.769Z,10.80
2018-11-10T19:22:08.784Z,10.81
2018-11-10T19:24:37.847Z,10.75
2018-11-10T19:27:06.760Z,10.77
2018-11-10T19:29:35.815Z,10.73
2018-11-10T19:32:05.690Z,10.74
2018-11-10T19:34:35.548Z,10.65
2018-11-10T19:37:04.716Z,10.62
2018-11-10T19:39:33.608Z,10.62
2018-11-10T19:42:02.671Z,10.62
2018-11-10T19:44:32.054Z,10.61
2018-11-10T19:47:01.574Z,10.60
2018-11-10T19:49:30.716Z,10.55
2018-11-10T19:52:01.200Z,10.53
2018-11-10T19:54:30.508Z,10.56
2018-11-10T19:56:59.739Z,10.57
2018-11-10T19:59:30.085Z,10.59
2018-11-10T20:01:59.591Z,10.60
2018-11-10T20:04:29.496Z,10.60
2018-11-10T20:06:59.895Z,10.54
2018-11-10T20:09:31.149Z,10.51
2018-11-10T20:12:01.985Z,10.44
2018-11-10T20:14:33.390Z,10.49
2018-11-10T20:17:04.658Z,10.45
2018-11-10T20:19:38.314Z,10.43
2018-11-10T20:22:10.037Z,10.41
2018-11-10T20:24:43.383Z,10.38
2018-11-10T20:27:17.769Z,10.38
2018-11-10T20:29:49.251Z,10.33
2018-11-10T20:32:24.889Z,10.32
2018-11-10T20:34:54.785Z,10.23
2018-11-10T20:37:26.271Z,10.17
2018-11-10T20:39:58.354Z,10.20
2018-11-10T20:42:28.026Z,10.16
2018-11-10T20:45:05.279Z,10.12
2018-11-10T20:47:36.388Z,10.02
2018-11-10T20:50:13.128Z,10.08
2018-11-10T20:52:44.575Z,10.05
2018-11-10T20:55:19.049Z,10.00
2018-11-10T20:57:54.329Z,10.00
2018-11-10T21:00:30.305Z,10.02
2018-11-10T21:03:01.199Z,9.97
2018-11-10T21:05:33.149Z,9.92
2018-11-10T21:08:04.433Z,9.80
2018-11-10T21:10:37.871Z,9.78
2018-11-10T21:13:07.885Z,9.82
2018-11-10T21:15:39.073Z,9.69
2018-11-10T21:18:09.822Z,9.70
2018-11-10T21:20:40.487Z,9.73
2018-11-10T21:23:10.599Z,9.64
2018-11-10T21:25:40.572Z,9.58
2018-11-10T21:28:10.663Z,9.48
2018-11-10T21:30:45.089Z,9.48
2018-11-10T21:33:14.050Z,9.46
2018-11-10T21:35:43.248Z,9.45
2018-11-10T21:38:25.785Z,9.39
2018-11-10T21:41:05.645Z,9.40
2018-11-10T21:43:45.167Z,9.42
2018-11-10T21:48:59.192Z,9.45
2018-11-10T21:51:28.053Z,9.39
2018-11-10T21:53:58.023Z,9.46
2018-11-10T21:56:27.092Z,9.40
2018-11-10T21:58:58.535Z,9.33
2018-11-10T22:01:27.508Z,9.30
2018-11-10T22:03:56.534Z,9.30
2018-11-10T22:06:26.291Z,9.26
2018-11-10T22:08:55.418Z,9.17
2018-11-10T22:11:24.365Z,9.12
2018-11-10T22:13:53.606Z,9.09
2018-11-10T22:16:24.984Z,9.05
2018-11-10T22:18:54.512Z,9.02
2018-11-10T22:21:23.733Z,9.02
2018-11-10T22:23:54.019Z,8.95
2018-11-10T22:26:25.051Z,8.97
2018-11-10T22:28:54.174Z,8.90
2018-11-10T22:31:23.610Z,8.87
2018-11-10T22:33:52.798Z,8.82
2018-11-10T22:36:22.068Z,8.77
2018-11-10T22:38:51.108Z,8.76
2018-11-10T22:41:20.456Z,8.79
2018-11-10T22:43:49.318Z,8.79
2018-11-10T22:46:18.355Z,8.78
2018-11-10T22:48:48.161Z,8.82
2018-11-10T22:51:17.129Z,8.75
2018-11-10T22:53:46.423Z,8.73
2018-11-10T22:56:15.965Z,8.74
2018-11-10T22:58:46.706Z,8.73
2018-11-10T23:01:32.923Z,8.70
2018-11-10T23:04:02.197Z,8.68
2018-11-10T23:06:31.147Z,8.54
2018-11-10T23:09:01.513Z,8.54
2018-11-10T23:11:30.504Z,8.50
2018-11-10T23:14:00.032Z,8.56
2018-11-10T23:16:29.724Z,8.52
2018-11-10T23:18:58.832Z,8.52
2018-11-10T23:21:28.870Z,8.51
2018-11-10T23:23:59.203Z,8.56
2018-11-10T23:26:28.498Z,8.53
2018-11-10T23:28:57.296Z,8.51
2018-11-10T23:31:26.208Z,8.46
2018-11-10T23:33:56.103Z,8.46
2018-11-10T23:36:25.087Z,8.44
2018-11-10T23:38:54.221Z,8.48
2018-11-10T23:41:23.158Z,8.49
2018-11-10T23:43:52.035Z,8.42
2018-11-10T23:46:20.859Z,8.41
2018-11-10T23:48:49.746Z,8.35
2018-11-10T23:51:19.708Z,8.30
2018-11-10T23:53:48.579Z,8.29
2018-11-10T23:56:17.771Z,8.18
2018-11-10T23:58:46.684Z,8.16
